Ventura — ZCDT2 — position and weather

sailwx.info

Track history (hours):
 
Tides and Currents Weather Stations Pressure Air Temp Water Temp Dewpoint Dewpoint Depression Visibility Wind Speed Wind Dir Waves Ship Positions

Ventura

Last reported at 2017-Oct-22 07:41 UTC. Time now 2017-Oct-22 08:17 UTC.
Position N 28°58' W 013°32'.

Length 289 m; draft 8.6 m.

Type: Passenger vessel. MMSI: 310562000.

Date/timePositionNaut miles runAvg speedWind from/ knotsBaromVisibWave heightAir tempDewpointWater temp
2017-Oct-22 07:41N 28°58' W 013°32'0 0.0
2017-Oct-22 07:29N 28°58' W 013°32'1 2.1
2017-Oct-22 07:00N 28°57' W 013°32'4 7.7
2017-Oct-22 06:30N 28°54' W 013°35'4 8.7
2017-Oct-22 06:00N 28°51' W 013°38'4 8.6
2017-Oct-22 05:30N 28°49' W 013°43'4 8.7
2017-Oct-22 05:00N 28°48' W 013°48'5 9.2
2017-Oct-22 04:30N 28°48' W 013°53'7 9.3
2017-Oct-22 03:45N 28°48' W 014°01'2 9.0
2017-Oct-22 03:29N 28°48' W 014°03'5 8.7
2017-Oct-22 02:55N 28°46' W 014°08'4 8.5
2017-Oct-22 02:29N 28°44' W 014°12'14 8.2
2017-Oct-22 00:47N 28°36' W 014°25'2 8.5
2017-Oct-22 00:30N 28°34' W 014°27'4 8.5
2017-Oct-22 00:00N 28°32' W 014°31'4 8.4
2017-Oct-21 23:30N 28°29' W 014°35'4 8.5
2017-Oct-21 23:00N 28°27' W 014°39'4 8.5
2017-Oct-21 22:30N 28°25' W 014°43'4 8.6
2017-Oct-21 22:00N 28°22' W 014°47'4 8.5
2017-Oct-21 21:30N 28°19' W 014°49'4 8.8
2017-Oct-21 21:00N 28°14' W 014°51'4 8.7
2017-Oct-21 20:30N 28°10' W 014°53'4 8.5
2017-Oct-21 20:00N 28°07' W 014°56'4 7.7
2017-Oct-21 19:30N 28°06' W 015°00'4 8.7
2017-Oct-21 19:00N 28°07' W 015°05'4 8.5
2017-Oct-21 18:30N 28°07' W 015°10'4 8.9
2017-Oct-21 18:00N 28°07' W 015°15'5 9.0
2017-Oct-21 17:30N 28°06' W 015°20'4 9.0
2017-Oct-21 17:00N 28°08' W 015°25'1 1.7
2017-Oct-21 16:28N 28°08' W 015°25'0 0.0
2017-Oct-21 15:58N 28°08' W 015°25'0 0.0
2017-Oct-21 15:28N 28°08' W 015°25'0 0.0
2017-Oct-21 14:49N 28°08' W 015°25'0 0.0
2017-Oct-21 14:19N 28°08' W 015°25'0 0.0
2017-Oct-21 13:22N 28°08' W 015°25'0 0.0
2017-Oct-21 12:52N 28°08' W 015°25'0 0.0
2017-Oct-21 12:22N 28°08' W 015°25'0 0.0
2017-Oct-21 11:52N 28°08' W 015°25'0 0.0
2017-Oct-21 11:22N 28°08' W 015°25'0 0.0
2017-Oct-21 10:55N 28°08' W 015°25'0 0.0
2017-Oct-21 10:25N 28°08' W 015°25'0 0.0
2017-Oct-21 09:55N 28°08' W 015°25'0 0.0
2017-Oct-21 09:25N 28°08' W 015°25'0 0.0
2017-Oct-21 08:52N 28°08' W 015°25'0 0.0
2017-Oct-21 08:25N 28°08' W 015°25'0 0.0
2017-Oct-21 07:58N 28°08' W 015°25'0 0.0
2017-Oct-21 07:28N 28°08' W 015°25'0 0.0
2017-Oct-21 06:58N 28°08' W 015°25'0 0.0
2017-Oct-21 06:30N 28°08' W 015°25'1 1.6
2017-Oct-21 06:00N 28°08' W 015°25'4 7.5
2017-Oct-21 05:30N 28°07' W 015°21'4 7.6
2017-Oct-21 05:00N 28°10' W 015°18'4 8.7
2017-Oct-21 04:30N 28°14' W 015°18'4 8.6
2017-Oct-21 04:00N 28°18' W 015°17'5 8.9
2017-Oct-21 03:30N 28°23' W 015°16'5 9.0
2017-Oct-21 03:00N 28°26' W 015°20'5 9.3
2017-Oct-21 02:30N 28°29' W 015°24'5 9.5
2017-Oct-21 02:00N 28°31' W 015°29'510.0
2017-Oct-21 01:30N 28°33' W 015°34'5 9.8
2017-Oct-21 01:00N 28°35' W 015°39'5 9.1
2017-Oct-21 00:30N 28°32' W 015°43'5 9.2
2017-Oct-21 00:00N 28°29' W 015°46'4 9.0
2017-Oct-20 23:30N 28°25' W 015°50'4 9.0
2017-Oct-20 23:00N 28°22' W 015°54'4 8.8
2017-Oct-20 22:30N 28°20' W 015°58'4 8.6
2017-Oct-20 22:00N 28°21' W 016°03'5 9.1
2017-Oct-20 21:30N 28°23' W 016°07'5 9.3
2017-Oct-20 21:00N 28°26' W 016°11'4 7.1
2017-Oct-20 20:30N 28°29' W 016°14'0 0.2
2017-Oct-20 19:50N 28°29' W 016°14'0 0.0
2017-Oct-20 19:23N 28°29' W 016°14'0 0.0
2017-Oct-20 18:53N 28°29' W 016°14'0 0.0
2017-Oct-20 18:20N 28°29' W 016°14'0 0.0
2017-Oct-20 17:53N 28°29' W 016°14'0 0.0
2017-Oct-20 17:23N 28°29' W 016°14'0 0.0
2017-Oct-20 16:56N 28°29' W 016°14'0 0.0
2017-Oct-20 16:26N 28°29' W 016°14'0 0.0
2017-Oct-20 15:56N 28°29' W 016°14'0 0.0
2017-Oct-20 15:26N 28°29' W 016°14'0 0.0
2017-Oct-20 14:56N 28°29' W 016°14'0 0.0
2017-Oct-20 14:26N 28°29' W 016°14'0 0.0
2017-Oct-20 13:29N 28°29' W 016°14'0 0.0
2017-Oct-20 12:59N 28°29' W 016°14'0 0.0
2017-Oct-20 12:29N 28°29' W 016°14'0 0.0
2017-Oct-20 11:59N 28°29' W 016°14'0 0.0
2017-Oct-20 11:29N 28°29' W 016°14'0 0.0
2017-Oct-20 10:56N 28°29' W 016°14'0 0.0
2017-Oct-20 10:29N 28°29' W 016°14'1 0.2
2017-Oct-20 06:51N 28°28' W 016°14'410.1
2017-Oct-20 06:30N 28°28' W 016°10'1414.2
2017-Oct-20 05:32N 28°41' W 016°05'117.2
2017-Oct-20 05:30N 28°42' W 016°05'1117.6
2017-Oct-20 04:52N 28°53' W 016°07'1518.5
2017-Oct-20 04:04N 29°07' W 016°10'218.6
2017-Oct-20 03:58N 29°09' W 016°11'2121.6
2017-Oct-20 03:00N 29°30' W 016°12'31312.5 040 / 121020.710.8 22.520.223.4
2017-Oct-19 02:00N 34°42' W 015°42'34617.3 300 / 221018.710.8 20.219.922.5
2017-Oct-18 06:00N 39°42' W 012°06'9423.4 280 / 171012.910.8 18.011.620.5
2017-Oct-18 02:00N 41°06' W 011°12'15517.2 310 / 401014.2 5.4 18.0 9.519.3
2017-Oct-17 17:00N 43°24' W 009°36'68 4.2 170 / 351010.1 2.2 16.214.315.7
2017-Oct-17 01:00N 43°54' W 008°12'12515.6 100 / 221016.910.8 15.415.118.0
2017-Oct-16 17:00N 45°48' W 007°00'14315.7 270 / 161022.310.8 17.510.017.2
2017-Oct-16 07:53N 48°02' W 005°45'2613.9
2017-Oct-16 06:00N 48°24' W 005°24'9161.5 200 / 421006.7 5.4 18.415.915.0
2017-Oct-16 05:56N 48°33' W 005°21'1918.4
2017-Oct-16 04:53N 48°47' W 005°01'718.0
2017-Oct-16 04:31N 48°51' W 004°53'918.5
2017-Oct-16 04:01N 48°57' W 004°43'918.3
2017-Oct-16 03:31N 49°03' W 004°32'917.8
2017-Oct-16 03:01N 49°09' W 004°22'917.6
2017-Oct-16 02:31N 49°15' W 004°12'917.2
2017-Oct-16 02:00N 49°21' W 004°02'6411.9
2017-Oct-16 02:00N 49°18' W 003°54'919.2 180 / 401011.210.8 18.014.615.5
2017-Oct-16 01:31N 49°27' W 003°54'917.8
2017-Oct-16 01:01N 49°33' W 003°43'918.4
2017-Oct-16 00:31N 49°39' W 003°32'918.8
2017-Oct-16 00:01N 49°45' W 003°21'1019.5
2017-Oct-15 23:31N 49°51' W 003°09'1019.7
2017-Oct-15 23:01N 49°57' W 002°57'1019.0
2017-Oct-15 22:31N 49°59' W 002°43'1020.0
2017-Oct-15 22:00N 50°03' W 002°28'1020.5
2017-Oct-15 21:31N 50°07' W 002°14'3019.6
2017-Oct-15 19:58N 50°21' W 001°32'919.0
2017-Oct-15 19:31N 50°26' W 001°20'918.4
2017-Oct-15 19:01N 50°31' W 001°08'917.0
2017-Oct-15 18:31N 50°37' W 000°59'612.1
2017-Oct-15 18:00N 50°43' W 001°00'611.9
2017-Oct-15 17:31N 50°46' W 001°09'612.7
2017-Oct-15 17:01N 50°48' W 001°18'4 8.7
2017-Oct-15 16:31N 50°52' W 001°22'2 4.4
2017-Oct-15 15:58N 50°53' W 001°24'0 0.0
2017-Oct-15 15:25N 50°53' W 001°24'0 0.0
2017-Oct-15 14:58N 50°53' W 001°24'0 0.0
2017-Oct-15 13:55N 50°53' W 001°24'0 0.0
2017-Oct-15 13:28N 50°53' W 001°24'0 0.0
2017-Oct-15 12:58N 50°53' W 001°24'0 0.0
2017-Oct-15 12:28N 50°53' W 001°24'0 0.0
2017-Oct-15 11:58N 50°53' W 001°24'0 0.0
2017-Oct-15 11:25N 50°53' W 001°24'0 0.0
2017-Oct-15 10:58N 50°53' W 001°24'0 0.0
2017-Oct-15 10:25N 50°53' W 001°24'0 0.0
2017-Oct-15 09:58N 50°53' W 001°24'0 0.0
2017-Oct-15 09:28N 50°53' W 001°24'0 0.0
2017-Oct-15 08:58N 50°53' W 001°24'0 0.0
2017-Oct-15 08:28N 50°53' W 001°24'0 0.0
2017-Oct-15 07:58N 50°53' W 001°24'0 0.0
2017-Oct-15 07:28N 50°53' W 001°24'0 0.0
2017-Oct-15 06:58N 50°53' W 001°24'0 0.0
2017-Oct-15 06:28N 50°53' W 001°24'0 0.0
2017-Oct-15 05:58N 50°53' W 001°24'0 0.0
2017-Oct-15 05:25N 50°53' W 001°24'0 0.7
2017-Oct-15 05:01N 50°53' W 001°24'4 7.6
2017-Oct-15 04:30N 50°51' W 001°20'4 8.4
2017-Oct-15 04:01N 50°46' W 001°18'713.7
2017-Oct-15 03:31N 50°45' W 001°07'714.2
2017-Oct-15 03:01N 50°41' W 000°58'510.4
2017-Oct-15 02:30N 50°36' W 000°59'713.7
2017-Oct-15 02:00N 50°31' W 001°07'917.4
2017-Oct-15 01:30N 50°27' W 001°19'917.8
2017-Oct-15 01:00N 50°23' W 001°32'918.2
2017-Oct-15 00:30N 50°20' W 001°45'918.6
2017-Oct-15 00:00N 50°15' W 001°57'1019.1
2017-Oct-14 23:30N 50°07' W 002°06'918.9
2017-Oct-14 23:00N 49°59' W 002°14'917.8
2017-Oct-14 22:30N 49°56' W 002°26'917.8
2017-Oct-14 22:00N 49°53' W 002°39'817.0
2017-Oct-14 21:30N 49°50' W 002°52'917.1
2017-Oct-14 21:00N 49°46' W 003°03'917.2
2017-Oct-14 20:30N 49°41' W 003°14'917.2
2017-Oct-14 20:00N 49°36' W 003°25'917.7
2017-Oct-14 19:30N 49°30' W 003°35'917.5
2017-Oct-14 19:00N 49°25' W 003°46'917.5
2017-Oct-14 18:30N 49°20' W 003°57'917.0
2017-Oct-14 18:00N 49°15' W 004°07'817.0
2017-Oct-14 17:30N 49°10' W 004°18'917.1
2017-Oct-14 17:00N 49°04' W 004°28'816.9
2017-Oct-14 16:30N 48°59' W 004°38'1117.1
2017-Oct-14 15:52N 48°52' W 004°51'917.1
2017-Oct-14 15:20N 48°47' W 005°02'617.4
2017-Oct-14 15:00N 48°42' W 005°08'917.8
2017-Oct-14 14:30N 48°36' W 005°17'918.9
2017-Oct-14 14:00N 48°29' W 005°27'1019.1
2017-Oct-14 13:29N 48°20' W 005°34'919.2
2017-Oct-14 13:00N 48°12' W 005°41'1019.4
2017-Oct-14 12:30N 48°04' W 005°48'1119.7
2017-Oct-14 11:57N 47°55' W 005°56'919.8
2017-Oct-14 11:30N 47°47' W 006°03'1219.9
2017-Oct-14 10:53N 47°36' W 006°12'920.2
2017-Oct-14 10:27N 47°29' W 006°18'1020.2
2017-Oct-14 09:57N 47°20' W 006°26'1519.6
2017-Oct-14 09:11N 47°07' W 006°37'1020.1
2017-Oct-14 08:42N 46°58' W 006°44'420.0
2017-Oct-14 08:30N 46°55' W 006°47'13621.0
2017-Oct-14 02:00N 44°54' W 008°18'1913.6 100 / 111024.110.8 18.014.618.4
2017-Oct-14 00:35N 44°40' W 008°37'10119.3
2017-Oct-13 19:21N 43°12' W 009°46'618.4
2017-Oct-13 19:01N 43°06' W 009°48'918.7
2017-Oct-13 18:30N 42°57' W 009°48'918.9
2017-Oct-13 18:00N 42°47' W 009°48'1019.4
2017-Oct-13 17:30N 42°38' W 009°48'1019.6
2017-Oct-13 17:00N 42°28' W 009°49'2383.4
2017-Oct-13 17:00N 42°30' W 009°48'7020.2 350 / 131024.010.8 18.016.219.5
2017-Oct-13 13:32N 41°20' W 009°48'118.7
2017-Oct-13 13:28N 41°19' W 009°48'1018.9
2017-Oct-13 12:58N 41°09' W 009°49'918.9
2017-Oct-13 12:31N 41°01' W 009°50'1119.0
2017-Oct-13 11:55N 40°50' W 009°51'819.3
2017-Oct-13 11:30N 40°42' W 009°51'1019.4
2017-Oct-13 11:01N 40°32' W 009°51'1219.5
2017-Oct-13 10:23N 40°20' W 009°51'719.1
2017-Oct-13 10:00N 40°13' W 009°50'1018.6
2017-Oct-13 09:30N 40°03' W 009°50'2618.9
2017-Oct-13 08:07N 39°37' W 009°52'219.4
2017-Oct-13 08:01N 39°35' W 009°52'1019.1
2017-Oct-13 07:30N 39°26' W 009°49'919.1
2017-Oct-13 07:00N 39°16' W 009°50'1019.1
2017-Oct-13 06:31N 39°07' W 009°51'1019.2
2017-Oct-13 06:01N 38°57' W 009°51'9567.5
2017-Oct-13 06:00N 38°48' W 009°48'3 5.8 080 / 71023.1 0.1 17.017.016.4
2017-Oct-13 05:30N 38°47' W 009°52'1019.0
2017-Oct-13 05:00N 38°38' W 009°50'1019.5
2017-Oct-13 04:30N 38°29' W 009°46'1019.4
2017-Oct-13 04:01N 38°19' W 009°43'1019.4
2017-Oct-13 03:31N 38°10' W 009°40'1019.5
2017-Oct-13 03:01N 38°00' W 009°39'1019.8
2017-Oct-13 02:31N 37°51' W 009°36'1019.4
2017-Oct-13 02:00N 37°41' W 009°33'11692.2
2017-Oct-13 02:00N 37°30' W 009°30'1 2.8 1023.210.8 20.011.820.9
2017-Oct-13 01:30N 37°31' W 009°30'919.4
2017-Oct-13 01:00N 37°22' W 009°28'1019.3
2017-Oct-13 00:30N 37°13' W 009°25'918.9
2017-Oct-13 00:00N 37°04' W 009°22'1018.6
2017-Oct-12 23:27N 36°54' W 009°19'818.4
2017-Oct-12 23:00N 36°47' W 009°13'1019.0
2017-Oct-12 22:28N 36°43' W 009°01'919.5
2017-Oct-12 22:00N 36°40' W 008°50'1019.7
2017-Oct-12 21:30N 36°38' W 008°39'1119.5
2017-Oct-12 20:58N 36°35' W 008°26'919.1
2017-Oct-12 20:31N 36°31' W 008°16'1019.2
2017-Oct-12 20:00N 36°28' W 008°05'1019.3
2017-Oct-12 19:31N 36°25' W 007°53'1119.6
2017-Oct-12 18:56N 36°21' W 007°40'1019.6
2017-Oct-12 18:27N 36°18' W 007°29'919.3
2017-Oct-12 18:00N 36°16' W 007°19'1120.0
2017-Oct-12 17:28N 36°12' W 007°06'920.1
2017-Oct-12 17:00N 36°09' W 006°55'5352.1
2017-Oct-12 17:00N 36°06' W 007°00'1327.5 130 / 211021.210.8 23.916.321.8
2017-Oct-12 16:30N 36°07' W 006°43'1019.4
2017-Oct-12 16:00N 36°04' W 006°32'1019.8
2017-Oct-12 15:30N 36°00' W 006°20'1020.4
2017-Oct-12 14:59N 35°58' W 006°08'1020.2
2017-Oct-12 14:30N 35°58' W 005°55'1220.6
2017-Oct-12 13:56N 35°58' W 005°41'818.5
2017-Oct-12 13:30N 35°59' W 005°31'815.4
2017-Oct-12 13:00N 36°03' W 005°23'611.5
2017-Oct-12 12:30N 36°09' W 005°22'  
Track history (hours):
 
Tides and Currents Weather Stations Pressure Air Temp Water Temp Dewpoint Dewpoint Depression Visibility Wind Speed Wind Dir Waves Ship Positions

Ventura

Last reported at 2017-Oct-22 07:41 UTC. Time now 2017-Oct-22 08:17 UTC.
Position N 28°58' W 013°32'.

Length 289 m; draft 8.6 m.

Type: Passenger vessel. MMSI: 310562000.

Date/timePositionNaut miles runAvg speedWind from/ knotsBaromVisibWave heightAir tempDewpointWater temp
2017-Oct-22 07:41N 28°58' W 013°32'0 0.0
2017-Oct-22 07:29N 28°58' W 013°32'1 2.1
2017-Oct-22 07:00N 28°57' W 013°32'4 7.7
2017-Oct-22 06:30N 28°54' W 013°35'4 8.7
2017-Oct-22 06:00N 28°51' W 013°38'4 8.6
2017-Oct-22 05:30N 28°49' W 013°43'4 8.7
2017-Oct-22 05:00N 28°48' W 013°48'5 9.2
2017-Oct-22 04:30N 28°48' W 013°53'7 9.3
2017-Oct-22 03:45N 28°48' W 014°01'2 9.0
2017-Oct-22 03:29N 28°48' W 014°03'5 8.7
2017-Oct-22 02:55N 28°46' W 014°08'4 8.5
2017-Oct-22 02:29N 28°44' W 014°12'14 8.2
2017-Oct-22 00:47N 28°36' W 014°25'2 8.5
2017-Oct-22 00:30N 28°34' W 014°27'4 8.5
2017-Oct-22 00:00N 28°32' W 014°31'4 8.4
2017-Oct-21 23:30N 28°29' W 014°35'4 8.5
2017-Oct-21 23:00N 28°27' W 014°39'4 8.5
2017-Oct-21 22:30N 28°25' W 014°43'4 8.6
2017-Oct-21 22:00N 28°22' W 014°47'4 8.5
2017-Oct-21 21:30N 28°19' W 014°49'4 8.8
2017-Oct-21 21:00N 28°14' W 014°51'4 8.7
2017-Oct-21 20:30N 28°10' W 014°53'4 8.5
2017-Oct-21 20:00N 28°07' W 014°56'4 7.7
2017-Oct-21 19:30N 28°06' W 015°00'4 8.7
2017-Oct-21 19:00N 28°07' W 015°05'4 8.5
2017-Oct-21 18:30N 28°07' W 015°10'4 8.9
2017-Oct-21 18:00N 28°07' W 015°15'5 9.0
2017-Oct-21 17:30N 28°06' W 015°20'4 9.0
2017-Oct-21 17:00N 28°08' W 015°25'1 1.7
2017-Oct-21 16:28N 28°08' W 015°25'0 0.0
2017-Oct-21 15:58N 28°08' W 015°25'0 0.0
2017-Oct-21 15:28N 28°08' W 015°25'0 0.0
2017-Oct-21 14:49N 28°08' W 015°25'0 0.0
2017-Oct-21 14:19N 28°08' W 015°25'0 0.0
2017-Oct-21 13:22N 28°08' W 015°25'0 0.0
2017-Oct-21 12:52N 28°08' W 015°25'0 0.0
2017-Oct-21 12:22N 28°08' W 015°25'0 0.0
2017-Oct-21 11:52N 28°08' W 015°25'0 0.0
2017-Oct-21 11:22N 28°08' W 015°25'0 0.0
2017-Oct-21 10:55N 28°08' W 015°25'0 0.0
2017-Oct-21 10:25N 28°08' W 015°25'0 0.0
2017-Oct-21 09:55N 28°08' W 015°25'0 0.0
2017-Oct-21 09:25N 28°08' W 015°25'0 0.0
2017-Oct-21 08:52N 28°08' W 015°25'0 0.0
2017-Oct-21 08:25N 28°08' W 015°25'0 0.0
2017-Oct-21 07:58N 28°08' W 015°25'0 0.0
2017-Oct-21 07:28N 28°08' W 015°25'0 0.0
2017-Oct-21 06:58N 28°08' W 015°25'0 0.0
2017-Oct-21 06:30N 28°08' W 015°25'1 1.6
2017-Oct-21 06:00N 28°08' W 015°25'4 7.5
2017-Oct-21 05:30N 28°07' W 015°21'4 7.6
2017-Oct-21 05:00N 28°10' W 015°18'4 8.7
2017-Oct-21 04:30N 28°14' W 015°18'4 8.6
2017-Oct-21 04:00N 28°18' W 015°17'5 8.9
2017-Oct-21 03:30N 28°23' W 015°16'5 9.0
2017-Oct-21 03:00N 28°26' W 015°20'5 9.3
2017-Oct-21 02:30N 28°29' W 015°24'5 9.5
2017-Oct-21 02:00N 28°31' W 015°29'510.0
2017-Oct-21 01:30N 28°33' W 015°34'5 9.8
2017-Oct-21 01:00N 28°35' W 015°39'5 9.1
2017-Oct-21 00:30N 28°32' W 015°43'5 9.2
2017-Oct-21 00:00N 28°29' W 015°46'4 9.0
2017-Oct-20 23:30N 28°25' W 015°50'4 9.0
2017-Oct-20 23:00N 28°22' W 015°54'4 8.8
2017-Oct-20 22:30N 28°20' W 015°58'4 8.6
2017-Oct-20 22:00N 28°21' W 016°03'5 9.1
2017-Oct-20 21:30N 28°23' W 016°07'5 9.3
2017-Oct-20 21:00N 28°26' W 016°11'4 7.1
2017-Oct-20 20:30N 28°29' W 016°14'0 0.2
2017-Oct-20 19:50N 28°29' W 016°14'0 0.0
2017-Oct-20 19:23N 28°29' W 016°14'0 0.0
2017-Oct-20 18:53N 28°29' W 016°14'0 0.0
2017-Oct-20 18:20N 28°29' W 016°14'0 0.0
2017-Oct-20 17:53N 28°29' W 016°14'0 0.0
2017-Oct-20 17:23N 28°29' W 016°14'0 0.0
2017-Oct-20 16:56N 28°29' W 016°14'0 0.0
2017-Oct-20 16:26N 28°29' W 016°14'0 0.0
2017-Oct-20 15:56N 28°29' W 016°14'0 0.0
2017-Oct-20 15:26N 28°29' W 016°14'0 0.0
2017-Oct-20 14:56N 28°29' W 016°14'0 0.0
2017-Oct-20 14:26N 28°29' W 016°14'0 0.0
2017-Oct-20 13:29N 28°29' W 016°14'0 0.0
2017-Oct-20 12:59N 28°29' W 016°14'0 0.0
2017-Oct-20 12:29N 28°29' W 016°14'0 0.0
2017-Oct-20 11:59N 28°29' W 016°14'0 0.0
2017-Oct-20 11:29N 28°29' W 016°14'0 0.0
2017-Oct-20 10:56N 28°29' W 016°14'0 0.0
2017-Oct-20 10:29N 28°29' W 016°14'1 0.2
2017-Oct-20 06:51N 28°28' W 016°14'410.1
2017-Oct-20 06:30N 28°28' W 016°10'1414.2
2017-Oct-20 05:32N 28°41' W 016°05'117.2
2017-Oct-20 05:30N 28°42' W 016°05'1117.6
2017-Oct-20 04:52N 28°53' W 016°07'1518.5
2017-Oct-20 04:04N 29°07' W 016°10'218.6
2017-Oct-20 03:58N 29°09' W 016°11'2121.6
2017-Oct-20 03:00N 29°30' W 016°12'31312.5 040 / 121020.710.8 22.520.223.4
2017-Oct-19 02:00N 34°42' W 015°42'34617.3 300 / 221018.710.8 20.219.922.5
2017-Oct-18 06:00N 39°42' W 012°06'9423.4 280 / 171012.910.8 18.011.620.5
2017-Oct-18 02:00N 41°06' W 011°12'15517.2 310 / 401014.2 5.4 18.0 9.519.3
2017-Oct-17 17:00N 43°24' W 009°36'68 4.2 170 / 351010.1 2.2 16.214.315.7
2017-Oct-17 01:00N 43°54' W 008°12'12515.6 100 / 221016.910.8 15.415.118.0
2017-Oct-16 17:00N 45°48' W 007°00'14315.7 270 / 161022.310.8 17.510.017.2
2017-Oct-16 07:53N 48°02' W 005°45'2613.9
2017-Oct-16 06:00N 48°24' W 005°24'9161.5 200 / 421006.7 5.4 18.415.915.0
2017-Oct-16 05:56N 48°33' W 005°21'1918.4
2017-Oct-16 04:53N 48°47' W 005°01'718.0
2017-Oct-16 04:31N 48°51' W 004°53'918.5
2017-Oct-16 04:01N 48°57' W 004°43'918.3
2017-Oct-16 03:31N 49°03' W 004°32'917.8
2017-Oct-16 03:01N 49°09' W 004°22'917.6
2017-Oct-16 02:31N 49°15' W 004°12'917.2
2017-Oct-16 02:00N 49°21' W 004°02'6411.9
2017-Oct-16 02:00N 49°18' W 003°54'919.2 180 / 401011.210.8 18.014.615.5
2017-Oct-16 01:31N 49°27' W 003°54'917.8
2017-Oct-16 01:01N 49°33' W 003°43'918.4
2017-Oct-16 00:31N 49°39' W 003°32'918.8
2017-Oct-16 00:01N 49°45' W 003°21'1019.5
2017-Oct-15 23:31N 49°51' W 003°09'1019.7
2017-Oct-15 23:01N 49°57' W 002°57'1019.0
2017-Oct-15 22:31N 49°59' W 002°43'1020.0
2017-Oct-15 22:00N 50°03' W 002°28'1020.5
2017-Oct-15 21:31N 50°07' W 002°14'3019.6
2017-Oct-15 19:58N 50°21' W 001°32'919.0
2017-Oct-15 19:31N 50°26' W 001°20'918.4
2017-Oct-15 19:01N 50°31' W 001°08'917.0
2017-Oct-15 18:31N 50°37' W 000°59'612.1
2017-Oct-15 18:00N 50°43' W 001°00'611.9
2017-Oct-15 17:31N 50°46' W 001°09'612.7
2017-Oct-15 17:01N 50°48' W 001°18'4 8.7
2017-Oct-15 16:31N 50°52' W 001°22'2 4.4
2017-Oct-15 15:58N 50°53' W 001°24'0 0.0
2017-Oct-15 15:25N 50°53' W 001°24'0 0.0
2017-Oct-15 14:58N 50°53' W 001°24'0 0.0
2017-Oct-15 13:55N 50°53' W 001°24'0 0.0
2017-Oct-15 13:28N 50°53' W 001°24'0 0.0
2017-Oct-15 12:58N 50°53' W 001°24'0 0.0
2017-Oct-15 12:28N 50°53' W 001°24'0 0.0
2017-Oct-15 11:58N 50°53' W 001°24'0 0.0
2017-Oct-15 11:25N 50°53' W 001°24'0 0.0
2017-Oct-15 10:58N 50°53' W 001°24'0 0.0
2017-Oct-15 10:25N 50°53' W 001°24'0 0.0
2017-Oct-15 09:58N 50°53' W 001°24'0 0.0
2017-Oct-15 09:28N 50°53' W 001°24'0 0.0
2017-Oct-15 08:58N 50°53' W 001°24'0 0.0
2017-Oct-15 08:28N 50°53' W 001°24'0 0.0
2017-Oct-15 07:58N 50°53' W 001°24'0 0.0
2017-Oct-15 07:28N 50°53' W 001°24'0 0.0
2017-Oct-15 06:58N 50°53' W 001°24'0 0.0
2017-Oct-15 06:28N 50°53' W 001°24'0 0.0
2017-Oct-15 05:58N 50°53' W 001°24'0 0.0
2017-Oct-15 05:25N 50°53' W 001°24'0 0.7
2017-Oct-15 05:01N 50°53' W 001°24'4 7.6
2017-Oct-15 04:30N 50°51' W 001°20'4 8.4
2017-Oct-15 04:01N 50°46' W 001°18'713.7
2017-Oct-15 03:31N 50°45' W 001°07'714.2
2017-Oct-15 03:01N 50°41' W 000°58'510.4
2017-Oct-15 02:30N 50°36' W 000°59'713.7
2017-Oct-15 02:00N 50°31' W 001°07'917.4
2017-Oct-15 01:30N 50°27' W 001°19'917.8
2017-Oct-15 01:00N 50°23' W 001°32'918.2
2017-Oct-15 00:30N 50°20' W 001°45'918.6
2017-Oct-15 00:00N 50°15' W 001°57'1019.1
2017-Oct-14 23:30N 50°07' W 002°06'918.9
2017-Oct-14 23:00N 49°59' W 002°14'917.8
2017-Oct-14 22:30N 49°56' W 002°26'917.8
2017-Oct-14 22:00N 49°53' W 002°39'817.0
2017-Oct-14 21:30N 49°50' W 002°52'917.1
2017-Oct-14 21:00N 49°46' W 003°03'917.2
2017-Oct-14 20:30N 49°41' W 003°14'917.2
2017-Oct-14 20:00N 49°36' W 003°25'917.7
2017-Oct-14 19:30N 49°30' W 003°35'917.5
2017-Oct-14 19:00N 49°25' W 003°46'917.5
2017-Oct-14 18:30N 49°20' W 003°57'917.0
2017-Oct-14 18:00N 49°15' W 004°07'817.0
2017-Oct-14 17:30N 49°10' W 004°18'917.1
2017-Oct-14 17:00N 49°04' W 004°28'816.9
2017-Oct-14 16:30N 48°59' W 004°38'1117.1
2017-Oct-14 15:52N 48°52' W 004°51'917.1
2017-Oct-14 15:20N 48°47' W 005°02'617.4
2017-Oct-14 15:00N 48°42' W 005°08'917.8
2017-Oct-14 14:30N 48°36' W 005°17'918.9
2017-Oct-14 14:00N 48°29' W 005°27'1019.1
2017-Oct-14 13:29N 48°20' W 005°34'919.2
2017-Oct-14 13:00N 48°12' W 005°41'1019.4
2017-Oct-14 12:30N 48°04' W 005°48'1119.7
2017-Oct-14 11:57N 47°55' W 005°56'919.8
2017-Oct-14 11:30N 47°47' W 006°03'1219.9
2017-Oct-14 10:53N 47°36' W 006°12'920.2
2017-Oct-14 10:27N 47°29' W 006°18'1020.2
2017-Oct-14 09:57N 47°20' W 006°26'1519.6
2017-Oct-14 09:11N 47°07' W 006°37'1020.1
2017-Oct-14 08:42N 46°58' W 006°44'420.0
2017-Oct-14 08:30N 46°55' W 006°47'13621.0
2017-Oct-14 02:00N 44°54' W 008°18'1913.6 100 / 111024.110.8 18.014.618.4
2017-Oct-14 00:35N 44°40' W 008°37'10119.3
2017-Oct-13 19:21N 43°12' W 009°46'618.4
2017-Oct-13 19:01N 43°06' W 009°48'918.7
2017-Oct-13 18:30N 42°57' W 009°48'918.9
2017-Oct-13 18:00N 42°47' W 009°48'1019.4
2017-Oct-13 17:30N 42°38' W 009°48'1019.6
2017-Oct-13 17:00N 42°28' W 009°49'2383.4
2017-Oct-13 17:00N 42°30' W 009°48'7020.2 350 / 131024.010.8 18.016.219.5
2017-Oct-13 13:32N 41°20' W 009°48'118.7
2017-Oct-13 13:28N 41°19' W 009°48'1018.9
2017-Oct-13 12:58N 41°09' W 009°49'918.9
2017-Oct-13 12:31N 41°01' W 009°50'1119.0
2017-Oct-13 11:55N 40°50' W 009°51'819.3
2017-Oct-13 11:30N 40°42' W 009°51'1019.4
2017-Oct-13 11:01N 40°32' W 009°51'1219.5
2017-Oct-13 10:23N 40°20' W 009°51'719.1
2017-Oct-13 10:00N 40°13' W 009°50'1018.6
2017-Oct-13 09:30N 40°03' W 009°50'2618.9
2017-Oct-13 08:07N 39°37' W 009°52'219.4
2017-Oct-13 08:01N 39°35' W 009°52'1019.1
2017-Oct-13 07:30N 39°26' W 009°49'919.1
2017-Oct-13 07:00N 39°16' W 009°50'1019.1
2017-Oct-13 06:31N 39°07' W 009°51'1019.2
2017-Oct-13 06:01N 38°57' W 009°51'9567.5
2017-Oct-13 06:00N 38°48' W 009°48'3 5.8 080 / 71023.1 0.1 17.017.016.4
2017-Oct-13 05:30N 38°47' W 009°52'1019.0
2017-Oct-13 05:00N 38°38' W 009°50'1019.5
2017-Oct-13 04:30N 38°29' W 009°46'1019.4
2017-Oct-13 04:01N 38°19' W 009°43'1019.4
2017-Oct-13 03:31N 38°10' W 009°40'1019.5
2017-Oct-13 03:01N 38°00' W 009°39'1019.8
2017-Oct-13 02:31N 37°51' W 009°36'1019.4
2017-Oct-13 02:00N 37°41' W 009°33'11692.2
2017-Oct-13 02:00N 37°30' W 009°30'1 2.8 1023.210.8 20.011.820.9
2017-Oct-13 01:30N 37°31' W 009°30'919.4
2017-Oct-13 01:00N 37°22' W 009°28'1019.3
2017-Oct-13 00:30N 37°13' W 009°25'918.9
2017-Oct-13 00:00N 37°04' W 009°22'1018.6
2017-Oct-12 23:27N 36°54' W 009°19'818.4
2017-Oct-12 23:00N 36°47' W 009°13'1019.0
2017-Oct-12 22:28N 36°43' W 009°01'919.5
2017-Oct-12 22:00N 36°40' W 008°50'1019.7
2017-Oct-12 21:30N 36°38' W 008°39'1119.5
2017-Oct-12 20:58N 36°35' W 008°26'919.1
2017-Oct-12 20:31N 36°31' W 008°16'1019.2
2017-Oct-12 20:00N 36°28' W 008°05'1019.3
2017-Oct-12 19:31N 36°25' W 007°53'1119.6
2017-Oct-12 18:56N 36°21' W 007°40'1019.6
2017-Oct-12 18:27N 36°18' W 007°29'919.3
2017-Oct-12 18:00N 36°16' W 007°19'1120.0
2017-Oct-12 17:28N 36°12' W 007°06'920.1
2017-Oct-12 17:00N 36°09' W 006°55'5352.1
2017-Oct-12 17:00N 36°06' W 007°00'1327.5 130 / 211021.210.8 23.916.321.8
2017-Oct-12 16:30N 36°07' W 006°43'1019.4
2017-Oct-12 16:00N 36°04' W 006°32'1019.8
2017-Oct-12 15:30N 36°00' W 006°20'1020.4
2017-Oct-12 14:59N 35°58' W 006°08'1020.2
2017-Oct-12 14:30N 35°58' W 005°55'1220.6
2017-Oct-12 13:56N 35°58' W 005°41'818.5
2017-Oct-12 13:30N 35°59' W 005°31'815.4
2017-Oct-12 13:00N 36°03' W 005°23'611.5
2017-Oct-12 12:30N 36°09' W 005°22'  

Dump ship's entire track history